Time,TemperatureF,DewpointF,PressureIn,WindDirection,WindDirectionDegrees,WindSpeedMPH,WindSpeedGustMPH,Humidity,HourlyPrecipIn,Conditions,Clouds,dailyrainin,SolarRadiationWatts/m^2,SoftwareType,DateUTC
2013-05-21 00:00:00,63.7,62.6,29.99,ENE,59,0.0,1.0,96,0.00,,,0.63,0.0,meteohub,2013-05-21 04:00:00,
2013-05-21 00:01:00,63.7,62.6,29.99,ENE,59,0.0,1.0,96,0.00,,,0.63,0.0,meteohub,2013-05-21 04:01:00,
2013-05-21 00:02:00,63.7,62.6,29.99,ENE,59,0.0,1.0,96,0.00,,,0.63,0.0,meteohub,2013-05-21 04:02:00,
2013-05-21 00:03:00,63.7,62.6,29.99,ENE,59,1.0,1.0,96,0.00,,,0.63,0.0,meteohub,2013-05-21 04:03:00,
2013-05-21 00:08:00,63.7,62.6,29.99,ENE,59,0.0,2.0,96,0.00,,,0.00,0.0,meteohub,2013-05-21 04:08:00,
2013-05-21 00:13:00,63.7,62.6,29.99,ENE,59,0.0,2.0,96,0.00,,,0.00,0.0,meteohub,2013-05-21 04:13:00,
2013-05-21 00:18:00,63.7,62.6,29.99,ENE,59,0.0,1.0,96,0.00,,,0.00,0.0,meteohub,2013-05-21 04:18:00,
2013-05-21 00:23:00,63.7,62.6,29.99,ENE,59,0.0,1.0,96,0.00,,,0.00,0.0,meteohub,2013-05-21 04:23:00,
2013-05-21 00:28:00,63.7,62.6,29.99,ENE,59,0.0,1.0,96,0.00,,,0.00,0.0,meteohub,2013-05-21 04:28:00,
2013-05-21 00:33:00,63.7,62.6,29.99,ENE,59,0.0,2.0,96,0.00,,,0.00,0.0,meteohub,2013-05-21 04:33:00,
2013-05-21 00:38:00,63.7,62.6,29.99,ENE,59,0.0,2.0,96,0.00,,,0.00,0.0,meteohub,2013-05-21 04:38:00,
2013-05-21 00:44:00,63.7,62.6,29.99,ENE,59,0.0,2.0,96,0.00,,,0.00,0.0,meteohub,2013-05-21 04:44:00,
2013-05-21 00:49:00,63.9,62.8,29.99,ENE,59,1.0,1.0,96,0.00,,,0.00,0.0,meteohub,2013-05-21 04:49:00,
2013-05-21 00:54:00,63.9,62.8,29.99,ENE,59,0.0,1.0,96,0.00,,,0.00,0.0,meteohub,2013-05-21 04:54:00,
2013-05-21 00:59:00,63.9,62.8,29.99,ENE,59,0.0,1.0,96,0.00,,,0.00,0.0,meteohub,2013-05-21 04:59:00,
2013-05-21 01:04:00,64.0,63.0,29.99,ENE,59,0.0,1.0,96,0.00,,,0.00,0.0,meteohub,2013-05-21 05:04:00,
2013-05-21 01:09:00,64.0,63.0,29.99,ENE,59,0.0,1.0,96,0.00,,,0.00,0.0,meteohub,2013-05-21 05:09:00,
2013-05-21 01:14:00,64.0,63.0,29.99,ENE,59,0.0,0.0,96,0.00,,,0.00,0.0,meteohub,2013-05-21 05:14:00,
2013-05-21 01:19:00,64.0,63.0,29.99,ENE,59,0.0,0.0,96,0.00,,,0.00,0.0,meteohub,2013-05-21 05:19:00,
2013-05-21 01:24:00,64.0,63.0,29.99,ENE,59,0.0,0.0,96,0.00,,,0.00,0.0,meteohub,2013-05-21 05:24:00,
2013-05-21 01:29:00,64.0,63.0,29.98,ENE,59,0.0,0.0,96,0.00,,,0.00,0.0,meteohub,2013-05-21 05:29:00,
2013-05-21 01:34:00,64.2,63.1,29.99,ENE,59,0.0,0.0,96,0.00,,,0.00,0.0,meteohub,2013-05-21 05:34:00,
2013-05-21 01:39:00,64.0,63.0,29.99,ENE,59,0.0,1.0,96,0.00,,,0.00,0.0,meteohub,2013-05-21 05:39:00,
2013-05-21 01:45:00,64.2,63.1,29.98,ENE,59,0.0,1.0,96,0.00,,,0.00,0.0,meteohub,2013-05-21 05:45:00,
2013-05-21 01:50:00,64.2,63.1,29.98,ENE,59,0.0,0.0,96,0.00,,,0.00,0.0,meteohub,2013-05-21 05:50:00,
2013-05-21 01:55:00,64.0,63.0,29.98,ENE,59,0.0,1.0,96,0.00,,,0.00,0.0,meteohub,2013-05-21 05:55:00,
2013-05-21 02:00:00,64.0,63.0,29.98,ENE,59,0.0,1.0,96,0.00,,,0.00,0.0,meteohub,2013-05-21 06:00:00,
2013-05-21 02:05:00,64.0,63.0,29.98,ENE,59,0.0,1.0,96,0.00,,,0.00,0.0,meteohub,2013-05-21 06:05:00,
2013-05-21 02:10:00,64.0,63.0,29.97,ENE,59,0.0,1.0,96,0.00,,,0.00,0.0,meteohub,2013-05-21 06:10:00,
2013-05-21 02:15:00,64.0,63.0,29.97,ENE,59,0.0,1.0,96,0.00,,,0.00,0.0,meteohub,2013-05-21 06:15:00,
2013-05-21 02:20:00,64.0,62.6,29.97,ENE,60,0.0,1.0,95,0.00,,,0.00,0.0,meteohub,2013-05-21 06:20:00,
2013-05-21 02:25:00,64.0,62.6,29.97,ENE,60,0.0,1.0,95,0.00,,,0.00,0.0,meteohub,2013-05-21 06:25:00,
2013-05-21 02:30:00,64.0,62.6,29.97,ENE,60,0.0,1.0,95,0.00,,,0.00,0.0,meteohub,2013-05-21 06:30:00,
2013-05-21 02:35:00,64.0,62.6,29.97,ENE,60,0.0,0.0,95,0.00,,,0.00,0.0,meteohub,2013-05-21 06:35:00,
2013-05-21 02:40:00,64.0,62.6,29.97,ENE,60,0.0,1.0,95,0.00,,,0.00,0.0,meteohub,2013-05-21 06:40:00,
2013-05-21 02:46:00,63.9,62.4,29.97,ENE,60,0.0,1.0,95,0.00,,,0.00,0.0,meteohub,2013-05-21 06:46:00,
2013-05-21 02:51:00,63.9,62.4,29.97,ENE,60,0.0,1.0,95,0.00,,,0.00,0.0,meteohub,2013-05-21 06:51:00,
2013-05-21 02:56:00,63.9,62.4,29.97,ENE,60,0.0,1.0,95,0.00,,,0.00,0.0,meteohub,2013-05-21 06:56:00,
2013-05-21 03:01:00,63.7,62.2,29.96,ENE,60,0.0,1.0,95,0.00,,,0.00,0.0,meteohub,2013-05-21 07:01:00,
2013-05-21 03:06:00,63.7,62.2,29.96,ENE,59,0.0,1.0,95,0.00,,,0.00,0.0,meteohub,2013-05-21 07:06:00,
2013-05-21 03:11:00,63.5,62.1,29.96,ENE,59,0.0,2.0,95,0.00,,,0.00,0.0,meteohub,2013-05-21 07:11:00,
2013-05-21 03:16:00,63.3,61.9,29.97,ENE,59,0.0,2.0,95,0.00,,,0.00,0.0,meteohub,2013-05-21 07:16:00,
2013-05-21 03:21:00,63.3,61.9,29.97,ENE,59,0.0,2.0,95,0.00,,,0.00,0.0,meteohub,2013-05-21 07:21:00,
2013-05-21 03:26:00,63.3,61.9,29.96,ENE,59,0.0,2.0,95,0.00,,,0.00,0.0,meteohub,2013-05-21 07:26:00,
2013-05-21 03:31:00,63.1,61.7,29.96,ENE,63,0.0,2.0,95,0.00,,,0.00,0.0,meteohub,2013-05-21 07:31:00,
2013-05-21 03:36:00,63.1,61.7,29.96,ENE,69,1.0,2.0,95,0.00,,,0.00,0.0,meteohub,2013-05-21 07:36:00,
2013-05-21 03:42:00,63.1,61.7,29.96,ENE,69,1.0,2.0,95,0.00,,,0.00,0.0,meteohub,2013-05-21 07:42:00,
2013-05-21 03:47:00,63.1,61.7,29.96,ENE,69,0.0,2.0,95,0.00,,,0.00,0.0,meteohub,2013-05-21 07:47:00,
2013-05-21 03:52:00,63.1,61.7,29.96,ENE,69,0.0,2.0,95,0.00,,,0.00,0.0,meteohub,2013-05-21 07:52:00,
2013-05-21 03:57:00,63.0,61.5,29.96,NE,49,0.0,2.0,95,0.00,,,0.00,0.0,meteohub,2013-05-21 07:57:00,
2013-05-21 04:02:00,63.0,61.5,29.96,ENE,74,0.0,3.0,95,0.00,,,0.00,0.0,meteohub,2013-05-21 08:02:00,
2013-05-21 04:07:00,63.0,61.5,29.96,ENE,76,1.0,3.0,95,0.00,,,0.00,0.0,meteohub,2013-05-21 08:07:00,
2013-05-21 04:12:00,62.8,61.3,29.95,ENE,76,0.0,2.0,95,0.00,,,0.00,0.0,meteohub,2013-05-21 08:12:00,
2013-05-21 04:17:00,62.8,61.3,29.95,ENE,76,0.0,2.0,95,0.00,,,0.00,0.0,meteohub,2013-05-21 08:17:00,
2013-05-21 04:22:00,62.8,61.3,29.95,ENE,76,0.0,2.0,95,0.00,,,0.00,0.0,meteohub,2013-05-21 08:22:00,
2013-05-21 04:27:00,62.8,61.3,29.95,ENE,76,1.0,2.0,95,0.00,,,0.00,0.0,meteohub,2013-05-21 08:27:00,
2013-05-21 04:32:00,62.8,61.3,29.95,ENE,76,1.0,2.0,95,0.00,,,0.00,0.0,meteohub,2013-05-21 08:32:00,
2013-05-21 04:37:00,62.8,61.3,29.95,ENE,76,0.0,2.0,95,0.00,,,0.00,0.0,meteohub,2013-05-21 08:37:00,
2013-05-21 04:42:00,62.8,61.3,29.95,East,82,0.0,2.0,95,0.00,,,0.00,0.0,meteohub,2013-05-21 08:42:00,
2013-05-21 04:47:00,62.8,61.3,29.95,East,82,1.0,2.0,95,0.00,,,0.00,0.0,meteohub,2013-05-21 08:47:00,
2013-05-21 04:52:00,62.8,61.3,29.95,East,82,1.0,2.0,95,0.00,,,0.00,0.0,meteohub,2013-05-21 08:52:00,
2013-05-21 04:57:00,62.8,61.3,29.95,East,82,1.0,2.0,95,0.00,,,0.00,0.0,meteohub,2013-05-21 08:57:00,
2013-05-21 05:05:00,62.6,61.2,29.94,East,82,1.0,2.0,95,0.00,,,0.00,0.0,meteohub,2013-05-21 09:05:00,
2013-05-21 05:10:00,62.4,61.0,29.94,East,82,0.0,2.0,95,0.00,,,0.00,0.0,meteohub,2013-05-21 09:10:00,
2013-05-21 05:15:00,62.4,61.0,29.95,East,82,1.0,2.0,95,0.00,,,0.00,0.0,meteohub,2013-05-21 09:15:00,
2013-05-21 05:20:00,62.4,61.0,29.95,East,82,1.0,2.0,95,0.00,,,0.00,0.0,meteohub,2013-05-21 09:20:00,
2013-05-21 05:25:00,62.4,61.0,29.95,East,82,2.0,2.0,95,0.00,,,0.00,0.0,meteohub,2013-05-21 09:25:00,
2013-05-21 05:30:00,62.4,61.0,29.95,East,101,0.0,2.0,95,0.00,,,0.00,0.0,meteohub,2013-05-21 09:30:00,
2013-05-21 05:35:00,62.4,61.0,29.96,ESE,123,1.0,3.0,95,0.00,,,0.00,0.0,meteohub,2013-05-21 09:35:00,
2013-05-21 05:40:00,62.4,61.0,29.96,ESE,123,0.0,3.0,95,0.00,,,0.00,0.0,meteohub,2013-05-21 09:40:00,
2013-05-21 05:45:00,62.4,61.0,29.96,ESE,123,2.0,2.0,95,0.00,,,0.00,0.0,meteohub,2013-05-21 09:45:00,
2013-05-21 05:50:00,62.4,61.0,29.96,ESE,123,0.0,2.0,95,0.00,,,0.00,0.0,meteohub,2013-05-21 09:50:00,
2013-05-21 05:56:00,62.4,61.0,29.95,ENE,65,2.0,2.0,95,0.00,,,0.00,0.0,meteohub,2013-05-21 09:56:00,
2013-05-21 06:01:00,62.4,61.0,29.95,ENE,65,0.0,2.0,95,0.00,,,0.00,0.0,meteohub,2013-05-21 10:01:00,
2013-05-21 06:06:00,62.4,61.0,29.96,ENE,65,0.0,2.0,95,0.00,,,0.00,0.0,meteohub,2013-05-21 10:06:00,
2013-05-21 06:11:00,62.4,61.0,29.96,ENE,65,0.0,2.0,95,0.00,,,0.00,0.0,meteohub,2013-05-21 10:11:00,
2013-05-21 06:16:00,62.4,61.0,29.96,ENE,65,1.0,2.0,95,0.00,,,0.00,0.0,meteohub,2013-05-21 10:16:00,
2013-05-21 06:21:00,62.4,61.0,29.96,ENE,65,1.0,2.0,95,0.00,,,0.00,0.0,meteohub,2013-05-21 10:21:00,
2013-05-21 06:26:00,62.4,61.0,29.96,ENE,65,0.0,2.0,95,0.00,,,0.00,0.0,meteohub,2013-05-21 10:26:00,
2013-05-21 06:31:00,62.4,61.0,29.96,ENE,65,0.0,2.0,95,0.00,,,0.00,0.0,meteohub,2013-05-21 10:31:00,
2013-05-21 06:36:00,62.4,61.0,29.96,ENE,65,2.0,2.0,95,0.00,,,0.00,5.0,meteohub,2013-05-21 10:36:00,
2013-05-21 06:42:00,62.4,61.0,29.96,ENE,65,0.0,2.0,95,0.00,,,0.00,7.0,meteohub,2013-05-21 10:42:00,
2013-05-21 06:47:00,62.4,61.0,29.96,ENE,65,0.0,2.0,95,0.00,,,0.00,9.0,meteohub,2013-05-21 10:47:00,
2013-05-21 06:52:00,62.4,61.0,29.96,ENE,65,0.0,2.0,95,0.00,,,0.00,11.0,meteohub,2013-05-21 10:52:00,
2013-05-21 06:57:00,62.4,61.0,29.96,ENE,65,0.0,2.0,95,0.00,,,0.00,12.0,meteohub,2013-05-21 10:57:00,
2013-05-21 07:02:00,62.4,61.0,29.96,ENE,65,0.0,1.0,95,0.00,,,0.00,12.0,meteohub,2013-05-21 11:02:00,
2013-05-21 07:07:00,62.4,61.0,29.96,ENE,65,2.0,2.0,95,0.00,,,0.00,14.0,meteohub,2013-05-21 11:07:00,
2013-05-21 07:12:00,62.4,61.0,29.96,ENE,65,0.0,2.0,95,0.00,,,0.00,16.0,meteohub,2013-05-21 11:12:00,
2013-05-21 07:17:00,62.2,60.8,29.96,ENE,65,1.0,2.0,95,0.00,,,0.00,18.0,meteohub,2013-05-21 11:17:00,
2013-05-21 07:22:00,62.2,60.8,29.97,ENE,65,0.0,2.0,95,0.00,,,0.00,18.0,meteohub,2013-05-21 11:22:00,
2013-05-21 07:27:00,62.2,60.8,29.96,ENE,65,1.0,2.0,95,0.00,,,0.00,19.0,meteohub,2013-05-21 11:27:00,
2013-05-21 07:32:00,62.2,60.8,29.96,ENE,65,0.0,2.0,95,0.00,,,0.00,19.0,meteohub,2013-05-21 11:32:00,
2013-05-21 07:37:00,62.2,60.8,29.97,ENE,65,0.0,2.0,95,0.00,,,0.00,21.0,meteohub,2013-05-21 11:37:00,
2013-05-21 07:42:00,62.2,60.8,29.97,East,101,0.0,1.0,95,0.00,,,0.00,23.0,meteohub,2013-05-21 11:42:00,
2013-05-21 07:47:00,62.2,60.8,29.97,SSE,148,0.0,3.0,95,0.00,,,0.00,25.0,meteohub,2013-05-21 11:47:00,
2013-05-21 07:52:00,62.2,61.2,29.97,SSE,148,0.0,3.0,96,0.00,,,0.00,26.0,meteohub,2013-05-21 11:52:00,
2013-05-21 07:57:00,62.2,61.2,29.97,SSE,148,0.0,3.0,96,0.00,,,0.00,28.0,meteohub,2013-05-21 11:57:00,
2013-05-21 08:02:00,62.2,61.2,29.97,SSE,148,0.0,2.0,96,0.00,,,0.00,30.0,meteohub,2013-05-21 12:02:00,
2013-05-21 08:08:00,62.2,61.2,29.97,SSE,148,1.0,2.0,96,0.00,,,0.00,32.0,meteohub,2013-05-21 12:08:00,
2013-05-21 08:13:00,62.2,61.2,29.97,SSE,148,0.0,1.0,96,0.00,,,0.00,33.0,meteohub,2013-05-21 12:13:00,
2013-05-21 08:18:00,62.4,61.3,29.97,SSE,148,0.0,1.0,96,0.00,,,0.00,33.0,meteohub,2013-05-21 12:18:00,
2013-05-21 08:23:00,62.4,61.3,29.97,SSE,149,1.0,2.0,96,0.00,,,0.00,35.0,meteohub,2013-05-21 12:23:00,
2013-05-21 08:28:00,62.8,61.7,29.97,East,82,0.0,3.0,96,0.00,,,0.00,39.0,meteohub,2013-05-21 12:28:00,
2013-05-21 08:33:00,63.0,61.9,29.96,SE,143,0.0,4.0,96,0.00,,,0.00,46.0,meteohub,2013-05-21 12:33:00,
2013-05-21 08:38:00,63.1,62.1,29.96,ENE,57,1.0,4.0,96,0.00,,,0.00,51.0,meteohub,2013-05-21 12:38:00,
2013-05-21 08:43:00,63.5,62.4,29.96,ENE,78,1.0,3.0,96,0.00,,,0.00,49.0,meteohub,2013-05-21 12:43:00,
2013-05-21 08:48:00,63.7,62.6,29.97,East,79,0.0,3.0,96,0.00,,,0.00,46.0,meteohub,2013-05-21 12:48:00,
2013-05-21 08:53:00,63.9,62.4,29.97,WSW,257,0.0,3.0,95,0.00,,,0.00,69.0,meteohub,2013-05-21 12:53:00,
2013-05-21 08:58:00,64.0,62.6,29.98,NNE,24,1.0,5.0,95,0.00,,,0.00,53.0,meteohub,2013-05-21 12:58:00,
2013-05-21 09:03:00,64.4,63.0,29.98,NNE,26,0.0,5.0,95,0.00,,,0.00,63.0,meteohub,2013-05-21 13:03:00,
2013-05-21 09:08:00,64.8,63.0,29.98,SE,137,1.0,4.0,94,0.00,,,0.00,104.0,meteohub,2013-05-21 13:08:00,
2013-05-21 09:13:00,64.9,62.8,29.98,South,175,0.0,3.0,93,0.00,,,0.00,114.0,meteohub,2013-05-21 13:13:00,
2013-05-21 09:18:00,65.1,63.0,29.99,SW,222,0.0,8.0,93,0.00,,,0.00,84.0,meteohub,2013-05-21 13:18:00,
2013-05-21 09:24:00,65.7,63.3,29.99,SSW,209,1.0,8.0,92,0.00,,,0.00,165.0,meteohub,2013-05-21 13:24:00,
2013-05-21 09:29:00,66.0,63.3,29.99,NE,36,1.0,5.0,91,0.00,,,0.00,304.0,meteohub,2013-05-21 13:29:00,
2013-05-21 09:34:00,66.7,63.7,29.99,NE,43,0.0,5.0,90,0.00,,,0.00,218.0,meteohub,2013-05-21 13:34:00,
2013-05-21 09:39:00,67.3,63.9,29.99,SSE,147,1.0,9.0,89,0.00,,,0.00,90.0,meteohub,2013-05-21 13:39:00,
2013-05-21 09:44:00,67.5,63.9,29.99,East,82,0.0,9.0,88,0.00,,,0.00,295.0,meteohub,2013-05-21 13:44:00,
2013-05-21 09:49:00,67.8,63.9,29.99,NE,43,1.0,9.0,87,0.00,,,0.00,95.0,meteohub,2013-05-21 13:49:00,
2013-05-21 09:54:00,68.4,64.4,29.99,NNE,33,0.0,6.0,87,0.00,,,0.00,292.0,meteohub,2013-05-21 13:54:00,
2013-05-21 09:59:00,68.5,64.2,29.99,NE,39,1.0,6.0,86,0.00,,,0.00,563.0,meteohub,2013-05-21 13:59:00,
2013-05-21 10:04:00,69.1,64.0,29.99,NNE,25,1.0,5.0,84,0.00,,,0.00,613.0,meteohub,2013-05-21 14:04:00,
2013-05-21 10:09:00,69.6,64.9,29.99,NE,40,0.0,6.0,85,0.00,,,0.00,631.0,meteohub,2013-05-21 14:09:00,
2013-05-21 10:14:00,70.2,64.8,29.99,ESE,108,0.0,6.0,83,0.00,,,0.00,650.0,meteohub,2013-05-21 14:14:00,
2013-05-21 10:19:00,70.9,65.1,29.99,SSE,159,1.0,6.0,82,0.00,,,0.00,661.0,meteohub,2013-05-21 14:19:00,
2013-05-21 10:24:00,71.2,65.1,29.99,ESE,103,0.0,6.0,81,0.00,,,0.00,666.0,meteohub,2013-05-21 14:24:00,
2013-05-21 10:30:00,71.4,64.2,29.99,ENE,69,0.0,6.0,78,0.00,,,0.00,689.0,meteohub,2013-05-21 14:30:00,
2013-05-21 10:35:00,72.0,65.1,29.98,NNE,26,0.0,5.0,79,0.00,,,0.00,696.0,meteohub,2013-05-21 14:35:00,
2013-05-21 10:40:00,72.5,65.3,29.98,NW,305,1.0,5.0,78,0.00,,,0.00,731.0,meteohub,2013-05-21 14:40:00,
2013-05-21 10:45:00,73.0,65.5,29.98,SSE,155,2.0,6.0,77,0.00,,,0.00,745.0,meteohub,2013-05-21 14:45:00,
2013-05-21 10:50:00,73.6,65.5,29.98,South,186,2.0,6.0,76,0.00,,,0.00,763.0,meteohub,2013-05-21 14:50:00,
2013-05-21 10:55:00,73.9,65.1,29.98,South,182,2.0,7.0,74,0.00,,,0.00,763.0,meteohub,2013-05-21 14:55:00,
2013-05-21 11:00:00,74.7,65.5,29.98,SE,124,2.0,7.0,73,0.00,,,0.00,784.0,meteohub,2013-05-21 15:00:00,
2013-05-21 11:05:00,74.7,63.9,29.98,NW,317,1.0,5.0,69,0.00,,,0.00,784.0,meteohub,2013-05-21 15:05:00,
2013-05-21 11:10:00,75.0,66.2,29.98,SSW,208,2.0,5.0,74,0.00,,,0.00,795.0,meteohub,2013-05-21 15:10:00,
2013-05-21 11:15:00,75.6,65.5,29.98,WSW,239,1.0,5.0,71,0.00,,,0.00,802.0,meteohub,2013-05-21 15:15:00,
2013-05-21 11:21:00,76.3,65.8,29.98,South,169,2.0,4.0,70,0.00,,,0.00,817.0,meteohub,2013-05-21 15:21:00,
2013-05-21 11:26:00,76.8,65.5,29.98,ENE,59,1.0,4.0,68,0.00,,,0.00,819.0,meteohub,2013-05-21 15:26:00,
2013-05-21 11:31:00,77.0,64.4,29.98,SSE,148,0.0,4.0,65,0.00,,,0.00,846.0,meteohub,2013-05-21 15:31:00,
2013-05-21 11:36:00,77.4,63.3,29.98,ESE,119,1.0,4.0,62,0.00,,,0.00,875.0,meteohub,2013-05-21 15:36:00,
2013-05-21 11:41:00,77.5,64.4,29.98,ESE,119,0.0,4.0,64,0.00,,,0.00,911.0,meteohub,2013-05-21 15:41:00,
2013-05-21 11:46:00,77.7,65.8,29.98,SSW,207,0.0,4.0,67,0.00,,,0.00,979.0,meteohub,2013-05-21 15:46:00,
2013-05-21 11:51:00,78.1,64.0,29.98,SE,144,2.0,3.0,62,0.00,,,0.00,923.0,meteohub,2013-05-21 15:51:00,
2013-05-21 11:56:00,78.3,66.0,29.98,ESE,119,0.0,6.0,66,0.00,,,0.00,967.0,meteohub,2013-05-21 15:56:00,
2013-05-21 12:01:00,78.1,65.3,29.98,ENE,76,1.0,6.0,65,0.00,,,0.00,149.0,meteohub,2013-05-21 16:01:00,
2013-05-21 12:06:00,77.5,66.9,29.98,SE,130,0.0,6.0,70,0.00,,,0.00,98.0,meteohub,2013-05-21 16:06:00,
2013-05-21 12:11:00,77.2,67.5,29.98,ESE,113,0.0,5.0,72,0.00,,,0.00,967.0,meteohub,2013-05-21 16:11:00,
2013-05-21 12:16:00,77.2,68.7,29.98,SSE,159,1.0,5.0,75,0.00,,,0.00,993.0,meteohub,2013-05-21 16:16:00,
2013-05-21 12:21:00,77.2,67.5,29.98,SW,220,2.0,4.0,72,0.00,,,0.00,956.0,meteohub,2013-05-21 16:21:00,
2013-05-21 12:27:00,77.2,66.2,29.97,West,264,1.0,4.0,69,0.00,,,0.00,928.0,meteohub,2013-05-21 16:27:00,
2013-05-21 12:32:00,77.4,68.4,29.97,East,79,1.0,4.0,74,0.00,,,0.00,962.0,meteohub,2013-05-21 16:32:00,
2013-05-21 12:37:00,77.9,67.8,29.97,SW,225,1.0,4.0,71,0.00,,,0.00,1032.0,meteohub,2013-05-21 16:37:00,
2013-05-21 12:42:00,78.3,69.3,29.97,SSE,155,1.0,5.0,74,0.00,,,0.00,179.0,meteohub,2013-05-21 16:42:00,
2013-05-21 12:47:00,78.1,67.8,29.97,SSE,147,1.0,5.0,71,0.00,,,0.00,244.0,meteohub,2013-05-21 16:47:00,
2013-05-21 12:52:00,77.5,66.6,29.97,NE,45,0.0,5.0,69,0.00,,,0.00,673.0,meteohub,2013-05-21 16:52:00,
2013-05-21 12:57:00,77.7,68.0,29.97,SW,232,0.0,3.0,72,0.00,,,0.00,1113.0,meteohub,2013-05-21 16:57:00,
2013-05-21 13:02:00,77.7,68.0,29.97,West,280,2.0,3.0,72,0.00,,,0.00,227.0,meteohub,2013-05-21 17:02:00,
2013-05-21 13:07:00,77.5,68.2,29.97,SSE,167,2.0,4.0,73,0.00,,,0.00,285.0,meteohub,2013-05-21 17:07:00,
2013-05-21 13:12:00,77.2,67.1,29.96,SW,220,0.0,4.0,71,0.00,,,0.00,294.0,meteohub,2013-05-21 17:12:00,
2013-05-21 13:17:00,77.2,69.1,29.96,WNW,295,3.0,4.0,76,0.00,,,0.00,1111.0,meteohub,2013-05-21 17:17:00,
2013-05-21 13:22:00,77.2,68.2,29.96,SW,232,4.0,5.0,74,0.00,,,0.00,341.0,meteohub,2013-05-21 17:22:00,
2013-05-21 13:27:00,77.5,68.5,29.96,West,278,4.0,5.0,74,0.00,,,0.00,1051.0,meteohub,2013-05-21 17:27:00,
2013-05-21 13:32:00,77.9,68.2,29.96,ESE,122,2.0,5.0,72,0.00,,,0.00,279.0,meteohub,2013-05-21 17:32:00,
2013-05-21 13:37:00,77.7,67.6,29.96,WSW,250,3.0,6.0,71,0.00,,,0.00,230.0,meteohub,2013-05-21 17:37:00,
2013-05-21 13:42:00,77.4,67.6,29.96,South,170,0.0,6.0,72,0.00,,,0.00,316.0,meteohub,2013-05-21 17:42:00,
2013-05-21 13:47:00,76.8,67.8,29.95,SSE,162,2.0,6.0,74,0.00,,,0.00,330.0,meteohub,2013-05-21 17:47:00,
2013-05-21 13:52:00,76.8,67.5,29.95,SW,227,5.0,6.0,73,0.00,,,0.00,330.0,meteohub,2013-05-21 17:52:00,
2013-05-21 13:57:00,77.0,68.5,29.95,ESE,104,1.0,7.0,75,0.00,,,0.00,1109.0,meteohub,2013-05-21 17:57:00,
2013-05-21 14:02:00,77.5,69.4,29.94,SW,215,3.0,7.0,76,0.00,,,0.00,1058.0,meteohub,2013-05-21 18:02:00,
2013-05-21 14:07:00,78.1,67.5,29.95,South,174,1.0,7.0,70,0.00,,,0.00,301.0,meteohub,2013-05-21 18:07:00,
2013-05-21 14:12:00,77.7,67.6,29.94,SE,135,3.0,6.0,71,0.00,,,0.00,323.0,meteohub,2013-05-21 18:12:00,
2013-05-21 14:17:00,77.5,68.9,29.95,South,191,2.0,7.0,75,0.00,,,0.00,341.0,meteohub,2013-05-21 18:17:00,
2013-05-21 14:22:00,77.4,68.4,29.95,WSW,238,4.0,7.0,74,0.00,,,0.00,304.0,meteohub,2013-05-21 18:22:00,
2013-05-21 14:27:00,76.8,67.5,29.95,SSW,202,1.0,7.0,73,0.00,,,0.00,255.0,meteohub,2013-05-21 18:27:00,
2013-05-21 14:32:00,76.6,68.5,29.95,SSW,195,0.0,7.0,76,0.00,,,0.00,204.0,meteohub,2013-05-21 18:32:00,
2013-05-21 14:37:00,76.1,67.3,29.94,SW,227,2.0,6.0,74,0.00,,,0.00,192.0,meteohub,2013-05-21 18:37:00,
2013-05-21 14:42:00,75.7,67.3,29.94,South,176,2.0,6.0,75,0.00,,,0.00,192.0,meteohub,2013-05-21 18:42:00,
2013-05-21 14:47:00,75.4,67.6,29.94,SSE,165,0.0,6.0,77,0.00,,,0.00,243.0,meteohub,2013-05-21 18:47:00,
2013-05-21 14:52:00,75.0,67.3,29.94,SE,127,0.0,5.0,77,0.00,,,0.00,269.0,meteohub,2013-05-21 18:52:00,
2013-05-21 14:57:00,75.0,67.6,29.94,NNW,338,1.0,4.0,78,0.00,,,0.00,403.0,meteohub,2013-05-21 18:57:00,
2013-05-21 15:02:00,75.4,68.7,29.94,WSW,241,0.0,5.0,80,0.00,,,0.00,638.0,meteohub,2013-05-21 19:02:00,
2013-05-21 15:07:00,75.6,67.8,29.94,WNW,294,0.0,5.0,77,0.00,,,0.00,84.0,meteohub,2013-05-21 19:07:00,
2013-05-21 15:12:00,75.6,67.8,29.94,SSE,149,2.0,5.0,77,0.00,,,0.00,65.0,meteohub,2013-05-21 19:12:00,
2013-05-21 15:17:00,74.8,65.1,29.94,WSW,246,3.0,3.0,72,0.00,,,0.00,63.0,meteohub,2013-05-21 19:17:00,
2013-05-21 15:22:00,74.1,62.4,29.94,WSW,237,0.0,3.0,67,0.00,,,0.00,84.0,meteohub,2013-05-21 19:22:00,
2013-05-21 15:27:00,73.4,61.3,29.93,WSW,237,0.0,7.0,66,0.00,,,0.00,58.0,meteohub,2013-05-21 19:27:00,
2013-05-21 15:32:00,72.7,62.2,29.94,WSW,237,3.0,7.0,70,0.00,,,0.00,47.0,meteohub,2013-05-21 19:32:00,
2013-05-21 15:37:00,72.1,62.6,29.93,WSW,237,0.0,7.0,72,0.00,,,0.00,69.0,meteohub,2013-05-21 19:37:00,
2013-05-21 15:42:00,71.4,61.9,29.93,WSW,237,0.0,3.0,72,0.00,,,0.00,67.0,meteohub,2013-05-21 19:42:00,
2013-05-21 15:47:00,70.9,60.6,29.93,WNW,291,0.0,3.0,70,0.00,,,0.00,95.0,meteohub,2013-05-21 19:47:00,
2013-05-21 15:52:00,70.2,60.6,29.92,WNW,297,2.0,3.0,72,0.00,,,0.00,121.0,meteohub,2013-05-21 19:52:00,
2013-05-21 15:57:00,70.0,62.8,29.92,WNW,297,0.0,3.0,78,0.00,,,0.00,178.0,meteohub,2013-05-21 19:57:00,
2013-05-21 16:02:00,69.4,62.6,29.93,SE,134,3.0,5.0,79,0.00,,,0.00,167.0,meteohub,2013-05-21 20:02:00,
2013-05-21 16:07:00,69.1,63.7,29.94,WSW,258,0.0,5.0,83,0.01,,,0.01,153.0,meteohub,2013-05-21 20:07:00,
2013-05-21 16:13:00,68.7,63.3,29.94,WSW,258,1.0,5.0,83,0.01,,,0.01,135.0,meteohub,2013-05-21 20:13:00,
2013-05-21 16:18:00,68.4,61.9,29.94,West,275,0.0,5.0,80,0.01,,,0.01,167.0,meteohub,2013-05-21 20:18:00,
2013-05-21 16:23:00,68.0,63.0,29.94,West,275,2.0,5.0,84,0.01,,,0.01,580.0,meteohub,2013-05-21 20:23:00,
2013-05-21 16:28:00,67.8,62.8,29.94,West,275,0.0,5.0,84,0.01,,,0.01,155.0,meteohub,2013-05-21 20:28:00,
2013-05-21 16:33:00,67.6,62.2,29.93,West,275,1.0,2.0,83,0.01,,,0.01,153.0,meteohub,2013-05-21 20:33:00,
2013-05-21 16:38:00,66.9,61.2,29.93,North,0,1.0,2.0,82,0.01,,,0.01,146.0,meteohub,2013-05-21 20:38:00,
2013-05-21 16:43:00,66.7,61.7,29.94,North,0,0.0,3.0,84,0.01,,,0.01,144.0,meteohub,2013-05-21 20:43:00,
2013-05-21 16:48:00,66.7,62.1,29.93,North,0,0.0,3.0,85,0.01,,,0.01,167.0,meteohub,2013-05-21 20:48:00,
2013-05-21 16:53:00,66.6,61.9,29.93,North,0,1.0,3.0,85,0.02,,,0.02,134.0,meteohub,2013-05-21 20:53:00,
2013-05-21 16:58:00,66.4,61.7,29.92,North,0,0.0,1.0,85,0.02,,,0.02,76.0,meteohub,2013-05-21 20:58:00,
2013-05-21 17:03:00,66.0,61.3,29.92,North,0,0.0,2.0,85,0.01,,,0.02,44.0,meteohub,2013-05-21 21:03:00,
2013-05-21 17:08:00,66.0,61.3,29.91,North,0,1.0,2.0,85,0.01,,,0.02,35.0,meteohub,2013-05-21 21:08:00,
2013-05-21 17:13:00,65.7,61.0,29.90,North,0,1.0,2.0,85,0.01,,,0.02,33.0,meteohub,2013-05-21 21:13:00,
2013-05-21 17:18:00,65.1,60.4,29.90,North,0,2.0,2.0,85,0.01,,,0.02,39.0,meteohub,2013-05-21 21:18:00,
2013-05-21 17:24:00,64.9,61.0,29.90,NNE,24,3.0,3.0,87,0.01,,,0.02,44.0,meteohub,2013-05-21 21:24:00,
2013-05-21 17:29:00,64.8,61.2,29.91,NNE,30,1.0,3.0,88,0.01,,,0.02,49.0,meteohub,2013-05-21 21:29:00,
2013-05-21 17:34:00,64.8,60.8,29.90,NNE,30,1.0,3.0,87,0.01,,,0.02,51.0,meteohub,2013-05-21 21:34:00,
2013-05-21 17:39:00,64.6,60.3,29.90,NNE,30,0.0,3.0,86,0.01,,,0.02,54.0,meteohub,2013-05-21 21:39:00,
2013-05-21 17:44:00,64.6,60.6,29.91,NNE,30,1.0,3.0,87,0.01,,,0.02,63.0,meteohub,2013-05-21 21:44:00,
2013-05-21 17:49:00,64.8,61.5,29.92,NNE,30,0.0,2.0,89,0.01,,,0.02,69.0,meteohub,2013-05-21 21:49:00,
2013-05-21 17:54:00,64.8,61.5,29.91,NNE,30,0.0,2.0,89,0.00,,,0.02,65.0,meteohub,2013-05-21 21:54:00,
2013-05-21 17:59:00,64.6,60.3,29.91,South,190,1.0,1.0,86,0.00,,,0.02,63.0,meteohub,2013-05-21 21:59:00,
2013-05-21 18:04:00,64.8,60.4,29.91,SE,128,0.0,3.0,86,0.00,,,0.02,60.0,meteohub,2013-05-21 22:04:00,
2013-05-21 18:09:00,64.8,60.8,29.91,ESE,105,1.0,3.0,87,0.00,,,0.02,51.0,meteohub,2013-05-21 22:09:00,
2013-05-21 18:14:00,64.8,60.4,29.91,North,355,0.0,3.0,86,0.00,,,0.02,46.0,meteohub,2013-05-21 22:14:00,
2013-05-21 18:19:00,64.8,60.4,29.91,North,355,0.0,2.0,86,0.00,,,0.02,39.0,meteohub,2013-05-21 22:19:00,
2013-05-21 18:24:00,64.8,59.9,29.89,North,355,2.0,2.0,84,0.00,,,0.02,33.0,meteohub,2013-05-21 22:24:00,
2013-05-21 18:29:00,64.8,59.5,29.89,North,355,0.0,2.0,83,0.00,,,0.02,26.0,meteohub,2013-05-21 22:29:00,
2013-05-21 18:34:00,64.8,59.5,29.90,WNW,302,0.0,2.0,83,0.00,,,0.02,23.0,meteohub,2013-05-21 22:34:00,
2013-05-21 18:39:00,64.8,59.9,29.90,WNW,302,1.0,2.0,84,0.00,,,0.02,19.0,meteohub,2013-05-21 22:39:00,
2013-05-21 18:45:00,64.8,59.9,29.91,WNW,302,1.0,2.0,84,0.00,,,0.02,19.0,meteohub,2013-05-21 22:45:00,
2013-05-21 18:50:00,64.8,60.1,29.91,WNW,302,0.0,2.0,85,0.00,,,0.02,18.0,meteohub,2013-05-21 22:50:00,
2013-05-21 18:55:00,64.8,60.1,29.91,WNW,302,0.0,2.0,85,0.00,,,0.02,16.0,meteohub,2013-05-21 22:55:00,
2013-05-21 19:00:00,64.8,59.9,29.90,WNW,302,0.0,1.0,84,0.00,,,0.02,14.0,meteohub,2013-05-21 23:00:00,
2013-05-21 19:05:00,64.8,60.1,29.91,WNW,302,0.0,2.0,85,0.00,,,0.02,12.0,meteohub,2013-05-21 23:05:00,
2013-05-21 19:10:00,64.8,59.9,29.91,WNW,302,0.0,2.0,84,0.00,,,0.02,12.0,meteohub,2013-05-21 23:10:00,
2013-05-21 19:15:00,64.9,60.3,29.91,WNW,302,1.0,2.0,85,0.00,,,0.02,11.0,meteohub,2013-05-21 23:15:00,
2013-05-21 19:20:00,64.9,61.0,29.91,WNW,302,2.0,3.0,87,0.00,,,0.02,11.0,meteohub,2013-05-21 23:20:00,
2013-05-21 19:25:00,64.8,60.8,29.91,WNW,302,0.0,3.0,87,0.00,,,0.02,11.0,meteohub,2013-05-21 23:25:00,
2013-05-21 19:30:00,64.6,60.3,29.92,WNW,302,0.0,3.0,86,0.00,,,0.02,11.0,meteohub,2013-05-21 23:30:00,
2013-05-21 19:35:00,64.6,59.9,29.92,WNW,302,0.0,2.0,85,0.00,,,0.02,9.0,meteohub,2013-05-21 23:35:00,
2013-05-21 19:41:00,64.6,59.9,29.93,WNW,302,0.0,2.0,85,0.00,,,0.02,9.0,meteohub,2013-05-21 23:41:00,
2013-05-21 19:46:00,64.6,59.9,29.93,WNW,302,0.0,1.0,85,0.00,,,0.02,7.0,meteohub,2013-05-21 23:46:00,
2013-05-21 19:51:00,64.6,60.3,29.94,WNW,302,1.0,1.0,86,0.00,,,0.02,5.0,meteohub,2013-05-21 23:51:00,
2013-05-21 19:56:00,64.6,60.3,29.94,WNW,302,0.0,1.0,86,0.00,,,0.02,0.0,meteohub,2013-05-21 23:56:00,
2013-05-21 20:01:00,64.6,60.3,29.94,NE,52,1.0,1.0,86,0.00,,,0.02,0.0,meteohub,2013-05-22 00:01:00,
2013-05-21 20:06:00,64.8,60.4,29.94,WNW,298,0.0,3.0,86,0.00,,,0.02,0.0,meteohub,2013-05-22 00:06:00,
2013-05-21 20:11:00,64.9,60.6,29.94,NNE,12,0.0,3.0,86,0.00,,,0.02,0.0,meteohub,2013-05-22 00:11:00,
2013-05-21 20:16:00,65.1,61.2,29.93,NNE,14,0.0,3.0,87,0.00,,,0.02,0.0,meteohub,2013-05-22 00:16:00,
2013-05-21 20:21:00,65.3,61.0,29.93,North,5,0.0,3.0,86,0.00,,,0.02,0.0,meteohub,2013-05-22 00:21:00,
2013-05-21 20:26:00,65.5,61.5,29.93,North,5,0.0,1.0,87,0.00,,,0.02,0.0,meteohub,2013-05-22 00:26:00,
2013-05-21 20:31:00,65.5,61.5,29.93,North,5,0.0,1.0,87,0.00,,,0.02,0.0,meteohub,2013-05-22 00:31:00,
2013-05-21 20:36:00,65.7,61.3,29.93,North,9,0.0,2.0,86,0.00,,,0.02,0.0,meteohub,2013-05-22 00:36:00,
2013-05-21 20:41:00,65.7,60.6,29.93,NNE,15,3.0,3.0,84,0.00,,,0.02,0.0,meteohub,2013-05-22 00:41:00,
2013-05-21 20:46:00,65.8,60.3,29.93,NNE,17,0.0,4.0,82,0.00,,,0.02,0.0,meteohub,2013-05-22 00:46:00,
2013-05-21 20:51:00,66.0,59.7,29.93,NNE,26,1.0,4.0,80,0.00,,,0.02,0.0,meteohub,2013-05-22 00:51:00,
2013-05-21 20:56:00,66.0,59.7,29.93,SE,129,0.0,4.0,80,0.00,,,0.02,0.0,meteohub,2013-05-22 00:56:00,
2013-05-21 21:01:00,66.4,60.4,29.92,SE,129,0.0,3.0,81,0.00,,,0.02,0.0,meteohub,2013-05-22 01:01:00,
2013-05-21 21:07:00,66.4,60.8,29.93,SE,129,0.0,3.0,82,0.00,,,0.02,0.0,meteohub,2013-05-22 01:07:00,
2013-05-21 21:12:00,66.2,60.3,29.93,SE,139,0.0,1.0,81,0.00,,,0.02,0.0,meteohub,2013-05-22 01:12:00,
2013-05-21 21:17:00,66.2,59.9,29.93,NE,53,1.0,2.0,80,0.00,,,0.02,0.0,meteohub,2013-05-22 01:17:00,
2013-05-21 21:22:00,66.0,60.1,29.93,NE,53,0.0,2.0,81,0.00,,,0.02,0.0,meteohub,2013-05-22 01:22:00,
2013-05-21 21:27:00,65.8,59.5,29.93,SE,126,0.0,2.0,80,0.00,,,0.02,0.0,meteohub,2013-05-22 01:27:00,
2013-05-21 21:32:00,65.8,59.5,29.93,East,90,2.0,3.0,80,0.00,,,0.02,0.0,meteohub,2013-05-22 01:32:00,
2013-05-21 21:37:00,65.8,59.5,29.93,NNW,338,1.0,3.0,80,0.00,,,0.02,0.0,meteohub,2013-05-22 01:37:00,
2013-05-21 21:42:00,65.7,59.0,29.92,NNE,27,3.0,3.0,79,0.00,,,0.02,0.0,meteohub,2013-05-22 01:42:00,
2013-05-21 21:47:00,65.7,58.6,29.92,NE,48,1.0,3.0,78,0.00,,,0.02,0.0,meteohub,2013-05-22 01:47:00,
2013-05-21 21:52:00,65.7,59.4,29.92,ENE,78,3.0,4.0,80,0.00,,,0.02,0.0,meteohub,2013-05-22 01:52:00,
2013-05-21 21:57:00,65.7,58.3,29.92,NE,38,1.0,4.0,77,0.00,,,0.02,0.0,meteohub,2013-05-22 01:57:00,
2013-05-21 22:02:00,65.7,56.8,29.92,NNE,19,1.0,4.0,73,0.00,,,0.02,0.0,meteohub,2013-05-22 02:02:00,
2013-05-21 22:07:00,65.7,57.2,29.91,NNE,32,3.0,5.0,74,0.00,,,0.02,0.0,meteohub,2013-05-22 02:07:00,
2013-05-21 22:12:00,65.7,55.9,29.91,North,355,1.0,5.0,71,0.00,,,0.02,0.0,meteohub,2013-05-22 02:12:00,
2013-05-21 22:18:00,65.7,56.8,29.91,NE,38,1.0,4.0,73,0.00,,,0.02,0.0,meteohub,2013-05-22 02:18:00,
2013-05-21 22:23:00,65.8,56.1,29.91,North,5,2.0,4.0,71,0.00,,,0.02,0.0,meteohub,2013-05-22 02:23:00,
2013-05-21 22:28:00,65.8,56.5,29.91,North,9,1.0,4.0,72,0.00,,,0.02,0.0,meteohub,2013-05-22 02:28:00,
2013-05-21 22:33:00,65.8,56.1,29.91,NE,34,2.0,4.0,71,0.00,,,0.02,0.0,meteohub,2013-05-22 02:33:00,
2013-05-21 22:38:00,65.8,57.4,29.91,NE,34,0.0,4.0,74,0.00,,,0.02,0.0,meteohub,2013-05-22 02:38:00,
2013-05-21 22:43:00,65.8,58.1,29.91,NE,34,1.0,4.0,76,0.00,,,0.02,0.0,meteohub,2013-05-22 02:43:00,
2013-05-21 22:48:00,65.7,60.1,29.92,SSW,205,0.0,3.0,82,0.00,,,0.02,0.0,meteohub,2013-05-22 02:48:00,
2013-05-21 22:53:00,65.5,60.4,29.94,SSW,208,0.0,5.0,84,0.00,,,0.02,0.0,meteohub,2013-05-22 02:53:00,
2013-05-21 22:58:00,65.1,60.1,29.94,SW,217,0.0,5.0,84,0.00,,,0.02,0.0,meteohub,2013-05-22 02:58:00,
2013-05-21 23:03:00,64.9,60.3,29.94,SW,217,0.0,5.0,85,0.00,,,0.02,0.0,meteohub,2013-05-22 03:03:00,
2013-05-21 23:08:00,64.6,59.9,29.94,SW,217,0.0,3.0,85,0.00,,,0.02,0.0,meteohub,2013-05-22 03:08:00,
2013-05-21 23:13:00,64.2,59.5,29.94,SW,217,0.0,2.0,85,0.00,,,0.02,0.0,meteohub,2013-05-22 03:13:00,
2013-05-21 23:18:00,64.0,59.7,29.95,SW,217,0.0,2.0,86,0.00,,,0.02,0.0,meteohub,2013-05-22 03:18:00,
2013-05-21 23:23:00,63.9,59.5,29.96,WNW,288,1.0,0.0,86,0.00,,,0.02,0.0,meteohub,2013-05-22 03:23:00,
2013-05-21 23:29:00,63.7,59.7,29.96,WNW,288,0.0,2.0,87,0.00,,,0.02,0.0,meteohub,2013-05-22 03:29:00,
2013-05-21 23:34:00,63.3,59.0,29.96,WNW,288,0.0,2.0,86,0.00,,,0.02,0.0,meteohub,2013-05-22 03:34:00,
2013-05-21 23:39:00,63.1,58.8,29.96,WNW,288,0.0,2.0,86,0.00,,,0.02,0.0,meteohub,2013-05-22 03:39:00,
2013-05-21 23:44:00,63.1,58.6,29.96,WNW,288,0.0,2.0,85,0.00,,,0.02,0.0,meteohub,2013-05-22 03:44:00,
2013-05-21 23:49:00,63.0,58.1,29.96,WNW,288,1.0,2.0,84,0.00,,,0.02,0.0,meteohub,2013-05-22 03:49:00,
2013-05-21 23:54:00,63.0,57.7,29.96,WNW,288,0.0,1.0,83,0.00,,,0.02,0.0,meteohub,2013-05-22 03:54:00,
2013-05-21 23:59:00,63.1,57.2,29.96,WNW,288,0.0,2.0,81,0.00,,,0.02,0.0,meteohub,2013-05-22 03:59:00,